sensor_id;sensor_type;location;lat;lon;timestamp;P1;durP1;ratioP1;P2;durP2;ratioP2
8909;SDS011;4490;49.072;8.804;2023-06-10T00:00:44;9.33;;;8.43;;
8909;SDS011;4490;49.072;8.804;2023-06-10T00:03:10;9.50;;;8.60;;
8909;SDS011;4490;49.072;8.804;2023-06-10T00:05:36;10.40;;;8.90;;
8909;SDS011;4490;49.072;8.804;2023-06-10T00:08:03;10.30;;;9.30;;
8909;SDS011;4490;49.072;8.804;2023-06-10T00:10:35;10.50;;;9.50;;
8909;SDS011;4490;49.072;8.804;2023-06-10T00:13:03;9.30;;;8.50;;
8909;SDS011;4490;49.072;8.804;2023-06-10T00:15:30;10.13;;;9.23;;
8909;SDS011;4490;49.072;8.804;2023-06-10T00:17:56;10.00;;;9.10;;
8909;SDS011;4490;49.072;8.804;2023-06-10T00:20:22;12.20;;;9.40;;
8909;SDS011;4490;49.072;8.804;2023-06-10T00:22:51;9.77;;;8.77;;
8909;SDS011;4490;49.072;8.804;2023-06-10T00:25:17;11.07;;;9.93;;
8909;SDS011;4490;49.072;8.804;2023-06-10T00:27:43;10.50;;;9.50;;
8909;SDS011;4490;49.072;8.804;2023-06-10T00:30:08;10.70;;;9.70;;
8909;SDS011;4490;49.072;8.804;2023-06-10T00:32:35;11.20;;;10.10;;
8909;SDS011;4490;49.072;8.804;2023-06-10T00:35:01;10.10;;;9.20;;
8909;SDS011;4490;49.072;8.804;2023-06-10T00:37:28;10.43;;;9.43;;
8909;SDS011;4490;49.072;8.804;2023-06-10T00:39:54;10.40;;;9.50;;
8909;SDS011;4490;49.072;8.804;2023-06-10T00:42:20;9.07;;;8.27;;
8909;SDS011;4490;49.072;8.804;2023-06-10T00:44:47;10.30;;;9.27;;
8909;SDS011;4490;49.072;8.804;2023-06-10T00:47:13;9.07;;;8.27;;
8909;SDS011;4490;49.072;8.804;2023-06-10T00:49:39;10.10;;;9.13;;
8909;SDS011;4490;49.072;8.804;2023-06-10T00:52:05;12.97;;;8.63;;
8909;SDS011;4490;49.072;8.804;2023-06-10T00:54:32;10.63;;;9.63;;
8909;SDS011;4490;49.072;8.804;2023-06-10T00:56:59;10.67;;;9.57;;
8909;SDS011;4490;49.072;8.804;2023-06-10T00:59:28;10.00;;;9.00;;
8909;SDS011;4490;49.072;8.804;2023-06-10T01:01:54;10.00;;;9.10;;
8909;SDS011;4490;49.072;8.804;2023-06-10T01:04:21;10.17;;;9.17;;
8909;SDS011;4490;49.072;8.804;2023-06-10T01:12:30;10.10;;;9.10;;
8909;SDS011;4490;49.072;8.804;2023-06-10T01:14:59;10.60;;;9.60;;
8909;SDS011;4490;49.072;8.804;2023-06-10T01:17:26;9.50;;;8.63;;
8909;SDS011;4490;49.072;8.804;2023-06-10T01:19:53;11.03;;;9.27;;
8909;SDS011;4490;49.072;8.804;2023-06-10T01:22:20;11.40;;;10.40;;
8909;SDS011;4490;49.072;8.804;2023-06-10T01:24:47;11.93;;;10.83;;
8909;SDS011;4490;49.072;8.804;2023-06-10T01:27:15;12.33;;;11.13;;
8909;SDS011;4490;49.072;8.804;2023-06-10T01:29:43;12.27;;;11.17;;
8909;SDS011;4490;49.072;8.804;2023-06-10T01:34:54;12.13;;;10.97;;
8909;SDS011;4490;49.072;8.804;2023-06-10T01:37:21;12.60;;;11.40;;
8909;SDS011;4490;49.072;8.804;2023-06-10T01:39:50;12.87;;;11.67;;
8909;SDS011;4490;49.072;8.804;2023-06-10T01:42:16;12.20;;;11.10;;
8909;SDS011;4490;49.072;8.804;2023-06-10T01:44:42;12.23;;;11.13;;
8909;SDS011;4490;49.072;8.804;2023-06-10T01:47:08;11.13;;;10.07;;
8909;SDS011;4490;49.072;8.804;2023-06-10T01:49:34;13.10;;;10.27;;
8909;SDS011;4490;49.072;8.804;2023-06-10T01:52:00;10.97;;;9.97;;
8909;SDS011;4490;49.072;8.804;2023-06-10T01:54:25;11.20;;;10.10;;
8909;SDS011;4490;49.072;8.804;2023-06-10T01:56:51;10.70;;;9.70;;
8909;SDS011;4490;49.072;8.804;2023-06-10T01:59:17;11.10;;;10.00;;
8909;SDS011;4490;49.072;8.804;2023-06-10T02:01:43;10.43;;;9.53;;
8909;SDS011;4490;49.072;8.804;2023-06-10T02:04:08;10.67;;;9.77;;
8909;SDS011;4490;49.072;8.804;2023-06-10T02:06:34;11.90;;;10.80;;
8909;SDS011;4490;49.072;8.804;2023-06-10T02:09:00;11.50;;;10.50;;
8909;SDS011;4490;49.072;8.804;2023-06-10T02:11:26;11.60;;;10.50;;
8909;SDS011;4490;49.072;8.804;2023-06-10T02:13:51;11.27;;;10.17;;
8909;SDS011;4490;49.072;8.804;2023-06-10T02:16:17;10.97;;;9.80;;
8909;SDS011;4490;49.072;8.804;2023-06-10T02:18:43;10.03;;;9.03;;
8909;SDS011;4490;49.072;8.804;2023-06-10T02:21:09;10.47;;;9.57;;
8909;SDS011;4490;49.072;8.804;2023-06-10T02:23:35;10.77;;;9.53;;
8909;SDS011;4490;49.072;8.804;2023-06-10T02:26:01;10.43;;;9.43;;
8909;SDS011;4490;49.072;8.804;2023-06-10T02:28:27;10.50;;;9.60;;
8909;SDS011;4490;49.072;8.804;2023-06-10T02:30:53;10.07;;;9.07;;
8909;SDS011;4490;49.072;8.804;2023-06-10T02:33:18;10.47;;;9.17;;
8909;SDS011;4490;49.072;8.804;2023-06-10T02:35:44;10.43;;;9.33;;
8909;SDS011;4490;49.072;8.804;2023-06-10T02:38:10;9.93;;;9.00;;
8909;SDS011;4490;49.072;8.804;2023-06-10T02:40:36;11.03;;;10.03;;
8909;SDS011;4490;49.072;8.804;2023-06-10T02:43:01;10.33;;;9.43;;
8909;SDS011;4490;49.072;8.804;2023-06-10T02:45:27;10.37;;;9.40;;
8909;SDS011;4490;49.072;8.804;2023-06-10T02:47:53;10.33;;;9.43;;
8909;SDS011;4490;49.072;8.804;2023-06-10T02:50:18;10.67;;;9.67;;
8909;SDS011;4490;49.072;8.804;2023-06-10T02:52:44;9.60;;;8.70;;
8909;SDS011;4490;49.072;8.804;2023-06-10T02:55:10;10.20;;;9.20;;
8909;SDS011;4490;49.072;8.804;2023-06-10T02:57:35;9.60;;;8.70;;
8909;SDS011;4490;49.072;8.804;2023-06-10T03:00:01;9.13;;;8.23;;
8909;SDS011;4490;49.072;8.804;2023-06-10T03:02:29;8.67;;;7.87;;
8909;SDS011;4490;49.072;8.804;2023-06-10T03:04:56;8.43;;;7.63;;
8909;SDS011;4490;49.072;8.804;2023-06-10T03:07:23;8.50;;;7.60;;
8909;SDS011;4490;49.072;8.804;2023-06-10T03:09:48;7.97;;;7.17;;
8909;SDS011;4490;49.072;8.804;2023-06-10T03:12:15;8.73;;;7.93;;
8909;SDS011;4490;49.072;8.804;2023-06-10T03:14:41;8.53;;;7.67;;
8909;SDS011;4490;49.072;8.804;2023-06-10T03:17:06;8.40;;;7.70;;
8909;SDS011;4490;49.072;8.804;2023-06-10T03:19:33;8.63;;;7.73;;
8909;SDS011;4490;49.072;8.804;2023-06-10T03:22:20;8.20;;;7.50;;
8909;SDS011;4490;49.072;8.804;2023-06-10T03:24:45;8.40;;;7.50;;
8909;SDS011;4490;49.072;8.804;2023-06-10T03:27:11;8.77;;;7.87;;
8909;SDS011;4490;49.072;8.804;2023-06-10T03:29:38;9.77;;;8.77;;
8909;SDS011;4490;49.072;8.804;2023-06-10T03:32:04;10.47;;;9.47;;
8909;SDS011;4490;49.072;8.804;2023-06-10T03:34:30;9.70;;;8.80;;
8909;SDS011;4490;49.072;8.804;2023-06-10T03:36:56;10.57;;;9.57;;
8909;SDS011;4490;49.072;8.804;2023-06-10T03:39:22;10.10;;;9.20;;
8909;SDS011;4490;49.072;8.804;2023-06-10T03:41:48;10.40;;;9.07;;
8909;SDS011;4490;49.072;8.804;2023-06-10T03:44:17;10.37;;;9.27;;
8909;SDS011;4490;49.072;8.804;2023-06-10T03:46:43;8.77;;;7.97;;
8909;SDS011;4490;49.072;8.804;2023-06-10T03:49:08;8.97;;;8.20;;
8909;SDS011;4490;49.072;8.804;2023-06-10T03:51:35;9.00;;;8.07;;
8909;SDS011;4490;49.072;8.804;2023-06-10T03:54:00;9.13;;;7.80;;
8909;SDS011;4490;49.072;8.804;2023-06-10T03:56:26;8.50;;;7.70;;
8909;SDS011;4490;49.072;8.804;2023-06-10T03:58:52;9.13;;;8.33;;
8909;SDS011;4490;49.072;8.804;2023-06-10T04:01:17;8.00;;;7.30;;
8909;SDS011;4490;49.072;8.804;2023-06-10T04:03:45;8.07;;;7.27;;
8909;SDS011;4490;49.072;8.804;2023-06-10T04:06:14;7.90;;;7.20;;
8909;SDS011;4490;49.072;8.804;2023-06-10T04:08:40;7.73;;;7.03;;
8909;SDS011;4490;49.072;8.804;2023-06-10T04:11:06;7.87;;;7.07;;
8909;SDS011;4490;49.072;8.804;2023-06-10T04:13:32;7.50;;;6.80;;
8909;SDS011;4490;49.072;8.804;2023-06-10T04:15:57;7.63;;;6.93;;
8909;SDS011;4490;49.072;8.804;2023-06-10T04:18:23;7.87;;;7.17;;
8909;SDS011;4490;49.072;8.804;2023-06-10T04:20:48;7.23;;;6.53;;
8909;SDS011;4490;49.072;8.804;2023-06-10T04:23:14;7.70;;;7.00;;
8909;SDS011;4490;49.072;8.804;2023-06-10T04:25:40;7.57;;;6.87;;
8909;SDS011;4490;49.072;8.804;2023-06-10T04:28:05;7.93;;;7.13;;
8909;SDS011;4490;49.072;8.804;2023-06-10T04:30:31;7.80;;;7.10;;
8909;SDS011;4490;49.072;8.804;2023-06-10T04:32:57;8.50;;;7.77;;
8909;SDS011;4490;49.072;8.804;2023-06-10T04:35:22;7.90;;;7.20;;
8909;SDS011;4490;49.072;8.804;2023-06-10T04:37:48;8.60;;;7.70;;
8909;SDS011;4490;49.072;8.804;2023-06-10T04:40:14;8.97;;;7.53;;
8909;SDS011;4490;49.072;8.804;2023-06-10T04:42:40;8.67;;;7.87;;
8909;SDS011;4490;49.072;8.804;2023-06-10T04:45:06;10.87;;;8.00;;
8909;SDS011;4490;49.072;8.804;2023-06-10T04:47:33;9.00;;;8.10;;
8909;SDS011;4490;49.072;8.804;2023-06-10T04:49:59;9.43;;;8.40;;
8909;SDS011;4490;49.072;8.804;2023-06-10T04:52:25;10.83;;;8.83;;
8909;SDS011;4490;49.072;8.804;2023-06-10T04:54:52;9.23;;;8.43;;
8909;SDS011;4490;49.072;8.804;2023-06-10T04:57:18;8.67;;;7.90;;
8909;SDS011;4490;49.072;8.804;2023-06-10T04:59:45;9.03;;;8.13;;
8909;SDS011;4490;49.072;8.804;2023-06-10T05:02:11;9.20;;;8.30;;
8909;SDS011;4490;49.072;8.804;2023-06-10T05:04:36;10.00;;;9.00;;
8909;SDS011;4490;49.072;8.804;2023-06-10T05:07:02;9.57;;;8.67;;
8909;SDS011;4490;49.072;8.804;2023-06-10T05:09:28;9.80;;;8.43;;
8909;SDS011;4490;49.072;8.804;2023-06-10T05:11:55;9.43;;;8.53;;
8909;SDS011;4490;49.072;8.804;2023-06-10T05:14:20;8.93;;;8.13;;
8909;SDS011;4490;49.072;8.804;2023-06-10T05:16:47;8.47;;;7.70;;
8909;SDS011;4490;49.072;8.804;2023-06-10T05:19:13;8.47;;;7.77;;
8909;SDS011;4490;49.072;8.804;2023-06-10T05:21:38;8.03;;;7.33;;
8909;SDS011;4490;49.072;8.804;2023-06-10T05:24:04;8.00;;;7.30;;
8909;SDS011;4490;49.072;8.804;2023-06-10T05:26:30;8.13;;;7.40;;
8909;SDS011;4490;49.072;8.804;2023-06-10T05:28:57;7.43;;;6.73;;
8909;SDS011;4490;49.072;8.804;2023-06-10T05:31:23;7.53;;;6.83;;
8909;SDS011;4490;49.072;8.804;2023-06-10T05:33:49;7.80;;;7.00;;
8909;SDS011;4490;49.072;8.804;2023-06-10T05:36:15;9.13;;;6.97;;
8909;SDS011;4490;49.072;8.804;2023-06-10T05:38:40;7.80;;;7.10;;
8909;SDS011;4490;49.072;8.804;2023-06-10T05:41:06;7.43;;;6.70;;
8909;SDS011;4490;49.072;8.804;2023-06-10T05:43:32;7.53;;;6.83;;
8909;SDS011;4490;49.072;8.804;2023-06-10T05:45:57;9.07;;;7.50;;
8909;SDS011;4490;49.072;8.804;2023-06-10T05:48:23;10.13;;;6.57;;
8909;SDS011;4490;49.072;8.804;2023-06-10T05:50:49;7.60;;;6.80;;
8909;SDS011;4490;49.072;8.804;2023-06-10T05:53:15;7.40;;;6.60;;
8909;SDS011;4490;49.072;8.804;2023-06-10T05:55:44;7.73;;;6.80;;
8909;SDS011;4490;49.072;8.804;2023-06-10T05:58:10;7.27;;;6.53;;
8909;SDS011;4490;49.072;8.804;2023-06-10T06:00:37;7.73;;;6.70;;
8909;SDS011;4490;49.072;8.804;2023-06-10T06:03:05;7.13;;;6.43;;
8909;SDS011;4490;49.072;8.804;2023-06-10T06:05:34;7.17;;;6.47;;
8909;SDS011;4490;49.072;8.804;2023-06-10T06:08:01;9.90;;;7.03;;
8909;SDS011;4490;49.072;8.804;2023-06-10T06:10:27;8.10;;;6.73;;
8909;SDS011;4490;49.072;8.804;2023-06-10T06:12:52;7.50;;;6.80;;
8909;SDS011;4490;49.072;8.804;2023-06-10T06:15:18;7.90;;;6.47;;
8909;SDS011;4490;49.072;8.804;2023-06-10T06:17:43;7.23;;;6.53;;
8909;SDS011;4490;49.072;8.804;2023-06-10T06:20:09;7.63;;;6.93;;
8909;SDS011;4490;49.072;8.804;2023-06-10T06:22:35;7.33;;;6.63;;
8909;SDS011;4490;49.072;8.804;2023-06-10T06:25:01;7.60;;;6.90;;
8909;SDS011;4490;49.072;8.804;2023-06-10T06:27:26;7.53;;;6.93;;
8909;SDS011;4490;49.072;8.804;2023-06-10T06:29:52;7.85;;;7.05;;
8909;SDS011;4490;49.072;8.804;2023-06-10T06:32:18;7.75;;;6.90;;
8909;SDS011;4490;49.072;8.804;2023-06-10T06:34:44;6.75;;;6.15;;
8909;SDS011;4490;49.072;8.804;2023-06-10T06:37:09;7.70;;;7.00;;
8909;SDS011;4490;49.072;8.804;2023-06-10T06:39:35;8.32;;;6.82;;
8909;SDS011;4490;49.072;8.804;2023-06-10T06:42:01;7.97;;;6.60;;
8909;SDS011;4490;49.072;8.804;2023-06-10T06:44:26;6.95;;;6.35;;
8909;SDS011;4490;49.072;8.804;2023-06-10T06:46:52;6.68;;;6.07;;
8909;SDS011;4490;49.072;8.804;2023-06-10T06:49:17;7.55;;;6.85;;
8909;SDS011;4490;49.072;8.804;2023-06-10T06:51:43;7.07;;;6.38;;
8909;SDS011;4490;49.072;8.804;2023-06-10T06:54:08;7.00;;;6.40;;
8909;SDS011;4490;49.072;8.804;2023-06-10T06:56:34;7.15;;;6.55;;
8909;SDS011;4490;49.072;8.804;2023-06-10T06:59:00;7.07;;;6.45;;
8909;SDS011;4490;49.072;8.804;2023-06-10T07:01:25;6.47;;;5.85;;
8909;SDS011;4490;49.072;8.804;2023-06-10T07:03:51;6.78;;;6.28;;
8909;SDS011;4490;49.072;8.804;2023-06-10T07:06:16;6.40;;;5.80;;
8909;SDS011;4490;49.072;8.804;2023-06-10T07:08:42;6.28;;;5.78;;
8909;SDS011;4490;49.072;8.804;2023-06-10T07:11:07;7.18;;;5.78;;
8909;SDS011;4490;49.072;8.804;2023-06-10T07:13:33;7.20;;;6.53;;
8909;SDS011;4490;49.072;8.804;2023-06-10T07:15:59;6.63;;;6.00;;
8909;SDS011;4490;49.072;8.804;2023-06-10T07:18:24;6.53;;;5.93;;
8909;SDS011;4490;49.072;8.804;2023-06-10T07:20:50;6.00;;;5.50;;
8909;SDS011;4490;49.072;8.804;2023-06-10T07:23:16;6.32;;;5.78;;
8909;SDS011;4490;49.072;8.804;2023-06-10T07:25:41;6.60;;;6.00;;
8909;SDS011;4490;49.072;8.804;2023-06-10T07:28:07;7.15;;;6.47;;
8909;SDS011;4490;49.072;8.804;2023-06-10T07:30:33;7.05;;;6.25;;
8909;SDS011;4490;49.072;8.804;2023-06-10T07:32:58;6.47;;;5.88;;
8909;SDS011;4490;49.072;8.804;2023-06-10T07:35:24;6.80;;;5.63;;
8909;SDS011;4490;49.072;8.804;2023-06-10T07:37:49;6.15;;;5.65;;
8909;SDS011;4490;49.072;8.804;2023-06-10T07:40:15;5.88;;;5.28;;
8909;SDS011;4490;49.072;8.804;2023-06-10T07:42:41;5.95;;;5.45;;
8909;SDS011;4490;49.072;8.804;2023-06-10T07:45:07;6.07;;;5.57;;
8909;SDS011;4490;49.072;8.804;2023-06-10T07:47:33;6.13;;;5.53;;
8909;SDS011;4490;49.072;8.804;2023-06-10T07:49:59;5.75;;;5.25;;
8909;SDS011;4490;49.072;8.804;2023-06-10T07:52:25;6.10;;;5.57;;
8909;SDS011;4490;49.072;8.804;2023-06-10T07:54:51;5.70;;;5.20;;
8909;SDS011;4490;49.072;8.804;2023-06-10T07:57:17;6.18;;;5.57;;
8909;SDS011;4490;49.072;8.804;2023-06-10T07:59:42;6.28;;;5.68;;
8909;SDS011;4490;49.072;8.804;2023-06-10T08:02:09;6.05;;;5.55;;
8909;SDS011;4490;49.072;8.804;2023-06-10T08:04:35;5.72;;;5.22;;
8909;SDS011;4490;49.072;8.804;2023-06-10T08:07:00;6.10;;;5.60;;
8909;SDS011;4490;49.072;8.804;2023-06-10T08:09:27;6.72;;;5.50;;
8909;SDS011;4490;49.072;8.804;2023-06-10T08:11:53;11.82;;;5.95;;
8909;SDS011;4490;49.072;8.804;2023-06-10T08:14:18;6.00;;;5.47;;
8909;SDS011;4490;49.072;8.804;2023-06-10T08:16:44;6.10;;;5.60;;
8909;SDS011;4490;49.072;8.804;2023-06-10T08:19:10;5.85;;;5.32;;
8909;SDS011;4490;49.072;8.804;2023-06-10T08:21:36;5.95;;;5.35;;
8909;SDS011;4490;49.072;8.804;2023-06-10T08:24:02;6.13;;;5.60;;
8909;SDS011;4490;49.072;8.804;2023-06-10T08:26:28;6.07;;;5.47;;
8909;SDS011;4490;49.072;8.804;2023-06-10T08:28:54;6.25;;;5.65;;
8909;SDS011;4490;49.072;8.804;2023-06-10T08:31:20;6.45;;;5.85;;
8909;SDS011;4490;49.072;8.804;2023-06-10T08:33:46;6.28;;;5.78;;
8909;SDS011;4490;49.072;8.804;2023-06-10T08:36:11;6.32;;;5.82;;
8909;SDS011;4490;49.072;8.804;2023-06-10T08:38:37;5.60;;;5.05;;
8909;SDS011;4490;49.072;8.804;2023-06-10T08:41:04;6.40;;;5.78;;
8909;SDS011;4490;49.072;8.804;2023-06-10T08:43:35;5.93;;;5.32;;
8909;SDS011;4490;49.072;8.804;2023-06-10T08:46:07;7.20;;;5.70;;
8909;SDS011;4490;49.072;8.804;2023-06-10T08:48:34;5.97;;;5.43;;
8909;SDS011;4490;49.072;8.804;2023-06-10T08:51:01;6.05;;;5.45;;
8909;SDS011;4490;49.072;8.804;2023-06-10T08:53:29;5.57;;;5.18;;
8909;SDS011;4490;49.072;8.804;2023-06-10T08:55:57;6.40;;;5.80;;
8909;SDS011;4490;49.072;8.804;2023-06-10T08:58:25;5.93;;;5.43;;
8909;SDS011;4490;49.072;8.804;2023-06-10T09:00:53;6.50;;;5.82;;
8909;SDS011;4490;49.072;8.804;2023-06-10T09:03:19;6.70;;;6.10;;
8909;SDS011;4490;49.072;8.804;2023-06-10T09:05:45;6.55;;;6.05;;
8909;SDS011;4490;49.072;8.804;2023-06-10T09:08:11;7.10;;;5.38;;
8909;SDS011;4490;49.072;8.804;2023-06-10T09:10:36;5.93;;;5.43;;
8909;SDS011;4490;49.072;8.804;2023-06-10T09:13:02;7.28;;;6.68;;
8909;SDS011;4490;49.072;8.804;2023-06-10T09:15:28;6.28;;;5.78;;
8909;SDS011;4490;49.072;8.804;2023-06-10T09:17:54;6.40;;;5.80;;
8909;SDS011;4490;49.072;8.804;2023-06-10T09:20:20;7.72;;;6.93;;
8909;SDS011;4490;49.072;8.804;2023-06-10T09:22:45;6.20;;;5.57;;
8909;SDS011;4490;49.072;8.804;2023-06-10T09:25:11;7.20;;;6.50;;
8909;SDS011;4490;49.072;8.804;2023-06-10T09:27:48;7.03;;;6.00;;
8909;SDS011;4490;49.072;8.804;2023-06-10T09:30:26;6.70;;;6.10;;
8909;SDS011;4490;49.072;8.804;2023-06-10T09:32:55;6.32;;;5.82;;
8909;SDS011;4490;49.072;8.804;2023-06-10T09:35:24;7.95;;;6.30;;
8909;SDS011;4490;49.072;8.804;2023-06-10T09:37:55;6.00;;;5.50;;
8909;SDS011;4490;49.072;8.804;2023-06-10T09:40:22;5.97;;;5.45;;
8909;SDS011;4490;49.072;8.804;2023-06-10T09:42:52;6.75;;;6.15;;
8909;SDS011;4490;49.072;8.804;2023-06-10T09:45:23;5.88;;;5.32;;
8909;SDS011;4490;49.072;8.804;2023-06-10T09:47:54;6.72;;;6.10;;
8909;SDS011;4490;49.072;8.804;2023-06-10T09:50:20;6.47;;;5.88;;
8909;SDS011;4490;49.072;8.804;2023-06-10T09:52:46;6.50;;;5.93;;
8909;SDS011;4490;49.072;8.804;2023-06-10T09:55:15;6.45;;;5.95;;
8909;SDS011;4490;49.072;8.804;2023-06-10T09:57:42;6.40;;;5.90;;
8909;SDS011;4490;49.072;8.804;2023-06-10T10:00:11;6.35;;;5.75;;
8909;SDS011;4490;49.072;8.804;2023-06-10T10:02:47;7.07;;;5.78;;
8909;SDS011;4490;49.072;8.804;2023-06-10T10:05:15;6.35;;;5.85;;
8909;SDS011;4490;49.072;8.804;2023-06-10T10:07:42;5.82;;;5.32;;
8909;SDS011;4490;49.072;8.804;2023-06-10T10:10:08;6.28;;;5.78;;
8909;SDS011;4490;49.072;8.804;2023-06-10T10:12:35;6.50;;;5.65;;
8909;SDS011;4490;49.072;8.804;2023-06-10T10:15:03;6.68;;;5.97;;
8909;SDS011;4490;49.072;8.804;2023-06-10T10:17:32;6.80;;;6.07;;
8909;SDS011;4490;49.072;8.804;2023-06-10T10:20:02;5.80;;;5.40;;
8909;SDS011;4490;49.072;8.804;2023-06-10T10:22:31;6.32;;;5.88;;
8909;SDS011;4490;49.072;8.804;2023-06-10T10:25:06;6.05;;;5.45;;
8909;SDS011;4490;49.072;8.804;2023-06-10T10:27:52;5.55;;;5.00;;
8909;SDS011;4490;49.072;8.804;2023-06-10T10:30:23;6.07;;;5.57;;
8909;SDS011;4490;49.072;8.804;2023-06-10T10:32:52;6.05;;;5.60;;
8909;SDS011;4490;49.072;8.804;2023-06-10T10:35:30;6.20;;;5.60;;
8909;SDS011;4490;49.072;8.804;2023-06-10T10:37:58;5.85;;;5.35;;
8909;SDS011;4490;49.072;8.804;2023-06-10T10:40:24;5.80;;;5.30;;
8909;SDS011;4490;49.072;8.804;2023-06-10T10:42:51;6.13;;;5.63;;
8909;SDS011;4490;49.072;8.804;2023-06-10T10:45:18;6.13;;;5.63;;
8909;SDS011;4490;49.072;8.804;2023-06-10T10:47:45;6.20;;;5.63;;
8909;SDS011;4490;49.072;8.804;2023-06-10T10:50:17;5.43;;;4.57;;
8909;SDS011;4490;49.072;8.804;2023-06-10T10:52:54;5.53;;;5.03;;
8909;SDS011;4490;49.072;8.804;2023-06-10T10:55:25;5.43;;;5.03;;
8909;SDS011;4490;49.072;8.804;2023-06-10T11:00:26;5.60;;;5.20;;
8909;SDS011;4490;49.072;8.804;2023-06-10T11:03:15;5.82;;;5.32;;
8909;SDS011;4490;49.072;8.804;2023-06-10T11:05:45;5.55;;;5.15;;
8909;SDS011;4490;49.072;8.804;2023-06-10T11:09:00;5.35;;;4.95;;
8909;SDS011;4490;49.072;8.804;2023-06-10T11:13:58;5.00;;;4.70;;
8909;SDS011;4490;49.072;8.804;2023-06-10T11:16:29;5.30;;;4.70;;
8909;SDS011;4490;49.072;8.804;2023-06-10T11:18:55;5.25;;;4.65;;
8909;SDS011;4490;49.072;8.804;2023-06-10T11:21:23;5.20;;;4.72;;
8909;SDS011;4490;49.072;8.804;2023-06-10T11:23:49;5.18;;;4.65;;
8909;SDS011;4490;49.072;8.804;2023-06-10T11:29:05;5.82;;;5.28;;
8909;SDS011;4490;49.072;8.804;2023-06-10T11:31:36;5.25;;;4.85;;
8909;SDS011;4490;49.072;8.804;2023-06-10T11:34:04;5.10;;;4.70;;
8909;SDS011;4490;49.072;8.804;2023-06-10T11:36:36;5.40;;;5.00;;
8909;SDS011;4490;49.072;8.804;2023-06-10T11:39:05;5.82;;;5.32;;
8909;SDS011;4490;49.072;8.804;2023-06-10T11:41:31;5.63;;;5.13;;
8909;SDS011;4490;49.072;8.804;2023-06-10T11:44:02;4.90;;;4.50;;
8909;SDS011;4490;49.072;8.804;2023-06-10T11:46:38;4.95;;;4.65;;
8909;SDS011;4490;49.072;8.804;2023-06-10T11:49:04;5.88;;;4.78;;
8909;SDS011;4490;49.072;8.804;2023-06-10T11:51:34;4.75;;;4.30;;
8909;SDS011;4490;49.072;8.804;2023-06-10T11:54:01;5.00;;;4.60;;
8909;SDS011;4490;49.072;8.804;2023-06-10T11:56:28;4.68;;;4.32;;
8909;SDS011;4490;49.072;8.804;2023-06-10T11:58:56;5.25;;;4.30;;
8909;SDS011;4490;49.072;8.804;2023-06-10T12:01:22;4.97;;;4.55;;
8909;SDS011;4490;49.072;8.804;2023-06-10T12:03:59;5.20;;;4.80;;
8909;SDS011;4490;49.072;8.804;2023-06-10T12:06:25;4.97;;;4.45;;
8909;SDS011;4490;49.072;8.804;2023-06-10T12:08:50;4.63;;;4.32;;
8909;SDS011;4490;49.072;8.804;2023-06-10T12:11:16;4.80;;;4.45;;
8909;SDS011;4490;49.072;8.804;2023-06-10T12:13:48;5.13;;;4.70;;
8909;SDS011;4490;49.072;8.804;2023-06-10T12:16:15;5.40;;;5.00;;
8909;SDS011;4490;49.072;8.804;2023-06-10T12:18:43;6.30;;;4.20;;
8909;SDS011;4490;49.072;8.804;2023-06-10T12:21:17;5.40;;;4.90;;
8909;SDS011;4490;49.072;8.804;2023-06-10T12:24:03;5.40;;;4.82;;
8909;SDS011;4490;49.072;8.804;2023-06-10T12:26:36;5.40;;;4.57;;
8909;SDS011;4490;49.072;8.804;2023-06-10T12:29:21;4.70;;;4.35;;
8909;SDS011;4490;49.072;8.804;2023-06-10T12:34:31;5.18;;;4.78;;
8909;SDS011;4490;49.072;8.804;2023-06-10T12:36:58;5.20;;;4.80;;
8909;SDS011;4490;49.072;8.804;2023-06-10T12:39:24;5.60;;;5.10;;
8909;SDS011;4490;49.072;8.804;2023-06-10T12:41:51;5.05;;;4.75;;
8909;SDS011;4490;49.072;8.804;2023-06-10T12:44:17;5.07;;;4.57;;
8909;SDS011;4490;49.072;8.804;2023-06-10T12:46:42;5.35;;;4.85;;
8909;SDS011;4490;49.072;8.804;2023-06-10T12:49:08;5.45;;;4.95;;
8909;SDS011;4490;49.072;8.804;2023-06-10T12:51:43;5.30;;;4.80;;
8909;SDS011;4490;49.072;8.804;2023-06-10T12:54:09;5.10;;;4.60;;
8909;SDS011;4490;49.072;8.804;2023-06-10T12:56:35;4.93;;;4.53;;
8909;SDS011;4490;49.072;8.804;2023-06-10T12:59:01;4.80;;;4.50;;
8909;SDS011;4490;49.072;8.804;2023-06-10T13:01:27;5.40;;;4.95;;
8909;SDS011;4490;49.072;8.804;2023-06-10T13:03:53;5.13;;;4.75;;
8909;SDS011;4490;49.072;8.804;2023-06-10T13:06:19;4.72;;;4.30;;
8909;SDS011;4490;49.072;8.804;2023-06-10T13:08:45;4.97;;;4.57;;
8909;SDS011;4490;49.072;8.804;2023-06-10T13:11:12;5.60;;;4.90;;
8909;SDS011;4490;49.072;8.804;2023-06-10T13:13:37;4.70;;;4.30;;
8909;SDS011;4490;49.072;8.804;2023-06-10T13:16:03;4.95;;;4.53;;
8909;SDS011;4490;49.072;8.804;2023-06-10T13:18:29;4.70;;;4.30;;
8909;SDS011;4490;49.072;8.804;2023-06-10T13:20:54;6.43;;;4.63;;
8909;SDS011;4490;49.072;8.804;2023-06-10T13:23:20;5.45;;;4.60;;
8909;SDS011;4490;49.072;8.804;2023-06-10T13:25:47;5.03;;;4.60;;
8909;SDS011;4490;49.072;8.804;2023-06-10T13:28:12;5.28;;;4.78;;
8909;SDS011;4490;49.072;8.804;2023-06-10T13:30:38;5.10;;;4.60;;
8909;SDS011;4490;49.072;8.804;2023-06-10T13:33:03;4.60;;;4.20;;
8909;SDS011;4490;49.072;8.804;2023-06-10T13:35:29;4.13;;;3.83;;
8909;SDS011;4490;49.072;8.804;2023-06-10T13:37:54;4.32;;;4.03;;
8909;SDS011;4490;49.072;8.804;2023-06-10T13:40:20;4.75;;;4.25;;
8909;SDS011;4490;49.072;8.804;2023-06-10T13:42:47;5.85;;;4.38;;
8909;SDS011;4490;49.072;8.804;2023-06-10T13:45:15;4.82;;;4.25;;
8909;SDS011;4490;49.072;8.804;2023-06-10T13:47:42;5.38;;;4.90;;
8909;SDS011;4490;49.072;8.804;2023-06-10T13:50:07;4.55;;;4.15;;
8909;SDS011;4490;49.072;8.804;2023-06-10T13:52:33;4.70;;;4.32;;
8909;SDS011;4490;49.072;8.804;2023-06-10T13:54:59;4.93;;;4.43;;
8909;SDS011;4490;49.072;8.804;2023-06-10T13:57:24;6.03;;;4.38;;
8909;SDS011;4490;49.072;8.804;2023-06-10T13:59:50;4.40;;;4.10;;
8909;SDS011;4490;49.072;8.804;2023-06-10T14:02:16;4.82;;;4.50;;
8909;SDS011;4490;49.072;8.804;2023-06-10T14:04:41;4.50;;;4.20;;
8909;SDS011;4490;49.072;8.804;2023-06-10T14:07:07;6.18;;;4.28;;
8909;SDS011;4490;49.072;8.804;2023-06-10T14:09:33;4.50;;;4.20;;
8909;SDS011;4490;49.072;8.804;2023-06-10T14:11:58;4.70;;;4.35;;
8909;SDS011;4490;49.072;8.804;2023-06-10T14:14:24;4.93;;;4.43;;
8909;SDS011;4490;49.072;8.804;2023-06-10T14:16:49;4.60;;;4.20;;
8909;SDS011;4490;49.072;8.804;2023-06-10T14:19:15;4.97;;;4.45;;
8909;SDS011;4490;49.072;8.804;2023-06-10T14:21:41;4.85;;;4.35;;
8909;SDS011;4490;49.072;8.804;2023-06-10T14:24:06;4.75;;;4.35;;
8909;SDS011;4490;49.072;8.804;2023-06-10T14:26:32;5.35;;;4.75;;
8909;SDS011;4490;49.072;8.804;2023-06-10T14:28:57;4.82;;;4.43;;
8909;SDS011;4490;49.072;8.804;2023-06-10T14:31:23;4.35;;;4.05;;
8909;SDS011;4490;49.072;8.804;2023-06-10T14:33:49;4.30;;;4.00;;
8909;SDS011;4490;49.072;8.804;2023-06-10T14:36:14;4.47;;;4.18;;
8909;SDS011;4490;49.072;8.804;2023-06-10T14:38:40;6.10;;;4.20;;
8909;SDS011;4490;49.072;8.804;2023-06-10T14:41:05;4.80;;;4.40;;
8909;SDS011;4490;49.072;8.804;2023-06-10T14:43:31;4.72;;;4.30;;
8909;SDS011;4490;49.072;8.804;2023-06-10T14:45:56;4.32;;;4.00;;
8909;SDS011;4490;49.072;8.804;2023-06-10T14:48:22;4.72;;;4.32;;
8909;SDS011;4490;49.072;8.804;2023-06-10T14:50:48;4.32;;;3.92;;
8909;SDS011;4490;49.072;8.804;2023-06-10T14:53:18;4.47;;;4.10;;
8909;SDS011;4490;49.072;8.804;2023-06-10T14:55:44;4.85;;;4.32;;
8909;SDS011;4490;49.072;8.804;2023-06-10T14:58:10;5.45;;;4.10;;
8909;SDS011;4490;49.072;8.804;2023-06-10T15:00:35;4.28;;;3.88;;
8909;SDS011;4490;49.072;8.804;2023-06-10T15:03:01;4.30;;;4.00;;
8909;SDS011;4490;49.072;8.804;2023-06-10T15:05:27;4.25;;;3.95;;
8909;SDS011;4490;49.072;8.804;2023-06-10T15:07:53;4.30;;;4.00;;
8909;SDS011;4490;49.072;8.804;2023-06-10T15:10:19;4.55;;;3.88;;
8909;SDS011;4490;49.072;8.804;2023-06-10T15:12:46;4.53;;;4.10;;
8909;SDS011;4490;49.072;8.804;2023-06-10T15:15:12;4.05;;;3.75;;
8909;SDS011;4490;49.072;8.804;2023-06-10T15:17:38;4.20;;;3.90;;
8909;SDS011;4490;49.072;8.804;2023-06-10T15:20:04;4.30;;;3.90;;
8909;SDS011;4490;49.072;8.804;2023-06-10T15:22:30;4.50;;;4.20;;
8909;SDS011;4490;49.072;8.804;2023-06-10T15:24:55;4.30;;;4.00;;
8909;SDS011;4490;49.072;8.804;2023-06-10T15:27:22;4.95;;;4.13;;
8909;SDS011;4490;49.072;8.804;2023-06-10T15:29:48;4.53;;;4.20;;